Time;durP1;ratioP1;P1;durP2;ratioP2;P2;SDS_P1;SDS_P2;PMS_P1;PMS_P2;Temp;Humidity;BMP_temperature;BMP_pressure;BME280_temperature;BME280_humidity;BME280_pressure;Samples;Min_cycle;Max_cycle;Signal;HPM_P1;HPM_P2
2023/09/25 00:00:20;;;;;;;6.93;2.90;;;;;12.10;101740.00;;;;4929365;29;20237;-71
2023/09/25 00:03:08;;;;;;;3.60;3.03;;;;;12.10;101740.00;;;;4926236;29;20256;-70
2023/09/25 00:05:55;;;;;;;3.27;2.70;;;;;12.00;101743.00;;;;4924093;29;20236;-67
2023/09/25 00:08:41;;;;;;;9.27;3.20;;;;;12.00;101737.00;;;;4917611;29;20232;-69
2023/09/25 00:11:28;;;;;;;5.37;2.90;;;;;12.00;101735.00;;;;4917466;29;20242;-68
2023/09/25 00:14:14;;;;;;;4.97;3.00;;;;;12.00;101735.00;;;;4919219;29;20921;-69
2023/09/25 00:17:00;;;;;;;3.10;2.80;;;;;11.90;101736.00;;;;4919859;29;20244;-67
2023/09/25 00:19:48;;;;;;;4.47;3.20;;;;;11.90;101731.00;;;;4912026;29;20237;-67
2023/09/25 00:22:34;;;;;;;4.13;2.73;;;;;11.90;101735.00;;;;4914948;29;20241;-69
2023/09/25 00:25:22;;;;;;;4.07;3.00;;;;;11.80;101731.00;;;;4914070;29;20629;-69
2023/09/25 00:28:09;;;;;;;3.80;3.23;;;;;11.80;101727.00;;;;4913225;29;20316;-69
2023/09/25 00:30:55;;;;;;;3.97;2.73;;;;;11.80;101733.00;;;;4919556;29;20360;-69
2023/09/25 00:33:41;;;;;;;5.30;2.77;;;;;11.70;101721.00;;;;4926251;29;20332;-69
2023/09/25 00:36:29;;;;;;;4.70;2.50;;;;;11.70;101734.00;;;;4921115;29;20318;-68
2023/09/25 00:39:15;;;;;;;4.23;3.33;;;;;11.60;101738.00;;;;4920611;29;20233;-67
2023/09/25 00:42:02;;;;;;;4.90;3.00;;;;;11.60;101735.00;;;;4926046;29;20232;-69
2023/09/25 00:44:48;;;;;;;4.73;2.83;;;;;11.60;101742.00;;;;4918163;29;20233;-69
2023/09/25 00:47:35;;;;;;;3.97;2.90;;;;;11.60;101743.00;;;;4922263;29;20244;-68
2023/09/25 00:50:21;;;;;;;3.30;3.00;;;;;11.60;101740.00;;;;4914692;29;20232;-72
2023/09/25 00:53:09;;;;;;;5.47;2.80;;;;;11.50;101736.00;;;;4921191;29;20324;-69
2023/09/25 00:55:56;;;;;;;3.83;2.70;;;;;11.50;101744.00;;;;4925163;29;20233;-68
2023/09/25 00:58:43;;;;;;;4.07;2.73;;;;;11.50;101730.00;;;;4922578;29;20236;-69
2023/09/25 01:01:29;;;;;;;3.53;2.60;;;;;11.40;101727.00;;;;4916029;28;20233;-69
2023/09/25 01:04:17;;;;;;;3.37;2.80;;;;;11.40;101716.00;;;;4923853;28;20321;-68
2023/09/25 01:07:05;;;;;;;5.50;2.80;;;;;11.40;101719.00;;;;4919861;29;20227;-64
2023/09/25 01:10:07;;;;;;;3.67;3.10;;;;;11.40;101725.00;;;;4917471;28;20240;-70
2023/09/25 01:12:54;;;;;;;4.77;2.93;;;;;11.40;101718.00;;;;4922872;28;20721;-68
2023/09/25 01:15:40;;;;;;;7.50;3.30;;;;;11.40;101720.00;;;;4914647;28;20294;-67
2023/09/25 01:18:27;;;;;;;5.23;3.50;;;;;11.40;101721.00;;;;4911487;28;20330;-69
2023/09/25 01:21:13;;;;;;;3.83;3.10;;;;;11.40;101731.00;;;;4918905;28;20240;-67
2023/09/25 01:24:02;;;;;;;7.03;3.23;;;;;11.40;101730.00;;;;4919970;28;20240;-68
2023/09/25 01:26:48;;;;;;;7.00;3.30;;;;;11.40;101727.00;;;;4918258;28;20236;-69
2023/09/25 01:29:35;;;;;;;5.60;3.50;;;;;11.40;101724.00;;;;4918186;29;20244;-68
2023/09/25 01:32:21;;;;;;;4.50;3.20;;;;;11.40;101734.00;;;;4919659;29;20308;-69
2023/09/25 01:35:13;;;;;;;4.67;3.27;;;;;11.30;101727.00;;;;4917996;28;20357;-68
2023/09/25 01:38:03;;;;;;;6.87;3.20;;;;;11.30;101728.00;;;;4920046;29;20277;-70
2023/09/25 01:40:51;;;;;;;3.97;3.20;;;;;11.30;101732.00;;;;4920092;29;20339;-70
2023/09/25 01:43:38;;;;;;;6.47;3.73;;;;;11.30;101727.00;;;;4925749;29;20232;-70
2023/09/25 01:46:24;;;;;;;3.97;3.30;;;;;11.30;101735.00;;;;4925873;29;20382;-70
2023/09/25 01:49:10;;;;;;;5.33;3.40;;;;;11.30;101729.00;;;;4925278;28;20243;-69
2023/09/25 01:51:57;;;;;;;5.33;3.47;;;;;11.30;101725.00;;;;4924541;29;20237;-71
2023/09/25 01:54:43;;;;;;;6.03;3.57;;;;;11.20;101722.00;;;;4922145;29;20233;-69
2023/09/25 01:57:31;;;;;;;5.80;3.67;;;;;11.20;101727.00;;;;4921937;28;20269;-69
2023/09/25 02:00:18;;;;;;;9.00;3.30;;;;;11.20;101730.00;;;;4916216;28;20241;-70
2023/09/25 02:03:06;;;;;;;6.70;3.90;;;;;11.20;101729.00;;;;4916100;29;20241;-69
2023/09/25 02:05:56;;;;;;;4.27;3.07;;;;;11.20;101725.00;;;;4913607;29;20238;-69
2023/09/25 02:08:42;;;;;;;8.50;3.60;;;;;11.10;101735.00;;;;4915783;29;20733;-68
2023/09/25 02:11:29;;;;;;;5.30;3.80;;;;;11.10;101736.00;;;;4920696;29;20366;-71
2023/09/25 02:14:16;;;;;;;5.00;3.47;;;;;11.10;101733.00;;;;4911779;29;20241;-67
2023/09/25 02:17:03;;;;;;;4.80;3.47;;;;;11.10;101734.00;;;;4917852;29;20300;-69
2023/09/25 02:19:50;;;;;;;4.80;3.50;;;;;11.00;101738.00;;;;4915651;28;20244;-69
2023/09/25 02:22:37;;;;;;;7.10;3.73;;;;;11.00;101737.00;;;;4924560;29;20364;-68
2023/09/25 02:25:23;;;;;;;6.20;3.83;;;;;11.10;101743.00;;;;4923690;28;20229;-68
2023/09/25 02:28:10;;;;;;;6.40;3.67;;;;;11.00;101734.00;;;;4923329;29;20248;-69
2023/09/25 02:30:57;;;;;;;4.97;3.53;;;;;11.00;101742.00;;;;4909187;29;20237;-70
2023/09/25 02:33:44;;;;;;;6.57;3.60;;;;;11.00;101729.00;;;;4924717;28;20236;-68
2023/09/25 02:36:30;;;;;;;9.20;3.90;;;;;10.90;101728.00;;;;4921866;28;20244;-69
2023/09/25 02:39:17;;;;;;;6.53;3.70;;;;;11.00;101730.00;;;;4925760;29;20239;-69
2023/09/25 02:42:04;;;;;;;4.90;3.50;;;;;10.90;101732.00;;;;4927163;29;20734;-65
2023/09/25 02:44:51;;;;;;;4.90;3.80;;;;;10.90;101740.00;;;;4929615;29;20248;-69
2023/09/25 02:47:39;;;;;;;5.23;3.87;;;;;10.80;101732.00;;;;4922739;29;20244;-68
2023/09/25 02:50:25;;;;;;;5.20;3.60;;;;;10.80;101740.00;;;;4928111;28;20243;-68
2023/09/25 02:53:11;;;;;;;6.80;3.60;;;;;10.80;101738.00;;;;4925944;29;20843;-68
2023/09/25 02:55:58;;;;;;;4.10;3.70;;;;;10.80;101738.00;;;;4921150;29;20312;-69
2023/09/25 02:58:45;;;;;;;5.67;3.93;;;;;10.70;101740.00;;;;4914680;29;20241;-68
2023/09/25 03:01:33;;;;;;;6.13;3.93;;;;;10.70;101737.00;;;;4922620;29;20297;-69
2023/09/25 03:04:22;;;;;;;5.97;3.93;;;;;10.70;101737.00;;;;4921074;29;20600;-68
2023/09/25 03:07:08;;;;;;;5.20;3.83;;;;;10.70;101738.00;;;;4923250;28;20241;-69
2023/09/25 03:09:55;;;;;;;6.63;4.10;;;;;10.70;101739.00;;;;4922692;29;20297;-69
2023/09/25 03:12:43;;;;;;;5.77;4.07;;;;;10.70;101735.00;;;;4921834;28;20229;-69
2023/09/25 03:15:30;;;;;;;6.17;4.10;;;;;10.60;101731.00;;;;4913406;29;20306;-69
2023/09/25 03:18:16;;;;;;;6.43;4.00;;;;;10.60;101737.00;;;;4921243;28;20316;-66
2023/09/25 03:21:11;;;;;;;6.63;4.10;;;;;10.60;101739.00;;;;4918997;29;20240;-70
2023/09/25 03:23:58;;;;;;;9.03;4.10;;;;;10.50;101744.00;;;;4911733;29;20241;-69
2023/09/25 03:26:44;;;;;;;6.33;4.40;;;;;10.50;101747.00;;;;4922589;29;20247;-69
2023/09/25 03:29:30;;;;;;;5.33;4.00;;;;;10.50;101749.00;;;;4929226;29;20250;-69
2023/09/25 03:32:17;;;;;;;8.77;4.37;;;;;10.60;101746.00;;;;4923329;28;20250;-69
2023/09/25 03:35:03;;;;;;;6.40;4.30;;;;;10.50;101754.00;;;;4929362;29;20304;-71
2023/09/25 03:37:51;;;;;;;7.13;4.13;;;;;10.50;101748.00;;;;4918756;29;20328;-68
2023/09/25 03:40:38;;;;;;;6.43;4.47;;;;;10.50;101760.00;;;;4930891;28;20371;-68
2023/09/25 03:43:24;;;;;;;7.37;4.73;;;;;10.50;101752.00;;;;4918705;28;20658;-69
2023/09/25 03:46:11;;;;;;;5.37;3.93;;;;;10.40;101752.00;;;;4923187;29;20751;-68
2023/09/25 03:49:01;;;;;;;6.47;4.50;;;;;10.40;101755.00;;;;4932946;29;20239;-68
2023/09/25 03:51:47;;;;;;;6.33;4.47;;;;;10.40;101759.00;;;;4929465;29;20230;-68
2023/09/25 03:54:35;;;;;;;7.00;4.67;;;;;10.40;101755.00;;;;4927496;28;20245;-68
2023/09/25 03:57:21;;;;;;;6.53;4.70;;;;;10.40;101766.00;;;;4933690;29;20243;-69
2023/09/25 04:00:09;;;;;;;5.40;4.60;;;;;10.40;101768.00;;;;4933353;29;20306;-68
2023/09/25 04:02:55;;;;;;;5.80;4.53;;;;;10.40;101767.00;;;;4924331;29;20404;-67
2023/09/25 04:05:41;;;;;;;7.23;4.90;;;;;10.50;101769.00;;;;4923897;29;20810;-68
2023/09/25 04:08:28;;;;;;;9.10;5.00;;;;;10.50;101778.00;;;;4917879;29;20865;-68
2023/09/25 04:11:16;;;;;;;7.13;5.03;;;;;10.40;101773.00;;;;4926197;29;20248;-67
2023/09/25 04:14:03;;;;;;;9.07;4.80;;;;;10.40;101760.00;;;;4918599;29;20257;-68
2023/09/25 04:16:49;;;;;;;9.07;4.97;;;;;10.40;101755.00;;;;4929481;29;20393;-68
2023/09/25 04:19:36;;;;;;;5.40;4.27;;;;;10.40;101765.00;;;;4919931;28;20356;-68
2023/09/25 04:22:22;;;;;;;5.60;4.37;;;;;10.30;101756.00;;;;4924791;29;20233;-68
2023/09/25 04:25:18;;;;;;;6.20;4.50;;;;;10.30;101755.00;;;;4920849;29;20231;-69
2023/09/25 04:28:06;;;;;;;5.73;4.00;;;;;10.30;101760.00;;;;4925856;28;20247;-69
2023/09/25 04:30:53;;;;;;;6.70;4.23;;;;;10.30;101754.00;;;;4923897;29;20987;-68
2023/09/25 04:33:40;;;;;;;7.00;4.87;;;;;10.20;101754.00;;;;4922261;29;20227;-68
2023/09/25 04:36:26;;;;;;;6.30;4.20;;;;;10.20;101750.00;;;;4924024;29;20617;-69
2023/09/25 04:39:15;;;;;;;5.53;4.30;;;;;10.20;101758.00;;;;4917547;29;20308;-69
2023/09/25 04:42:02;;;;;;;6.70;4.43;;;;;10.20;101755.00;;;;4923247;28;20277;-68
2023/09/25 04:44:50;;;;;;;5.77;4.30;;;;;10.10;101756.00;;;;4922892;29;20235;-68
2023/09/25 04:47:36;;;;;;;7.60;4.40;;;;;10.10;101759.00;;;;4923204;29;20233;-66
2023/09/25 04:50:23;;;;;;;6.30;4.50;;;;;10.10;101761.00;;;;4928723;29;20652;-69
2023/09/25 04:53:10;;;;;;;7.50;4.50;;;;;10.10;101751.00;;;;4917287;29;20366;-68
2023/09/25 04:55:56;;;;;;;9.50;4.50;;;;;10.10;101746.00;;;;4926150;28;20255;-67
2023/09/25 04:58:42;;;;;;;8.43;4.00;;;;;10.10;101759.00;;;;4920833;29;20603;-68
2023/09/25 05:01:30;;;;;;;5.97;4.07;;;;;10.00;101747.00;;;;4918567;29;20744;-68
2023/09/25 05:04:17;;;;;;;7.10;4.50;;;;;10.10;101760.00;;;;4919589;29;20238;-68
2023/09/25 05:07:03;;;;;;;6.77;4.60;;;;;10.10;101760.00;;;;4918927;29;20232;-68
2023/09/25 05:09:50;;;;;;;5.57;4.60;;;;;10.10;101758.00;;;;4921206;29;21203;-68
2023/09/25 05:12:36;;;;;;;10.37;4.87;;;;;10.10;101756.00;;;;4922700;29;20245;-69
2023/09/25 05:15:23;;;;;;;6.47;4.43;;;;;10.00;101752.00;;;;4917627;29;20372;-68
2023/09/25 05:18:12;;;;;;;6.10;4.80;;;;;10.10;101759.00;;;;4922261;28;20231;-68
2023/09/25 05:20:59;;;;;;;7.67;4.60;;;;;10.10;101754.00;;;;4919756;29;20738;-68
2023/09/25 05:23:45;;;;;;;6.37;4.57;;;;;10.10;101756.00;;;;4927865;29;20233;-68
2023/09/25 05:26:36;;;;;;;8.50;4.27;;;;;10.10;101755.00;;;;4924801;29;20247;-68
2023/09/25 05:29:22;;;;;;;6.93;4.50;;;;;10.10;101746.00;;;;4923901;29;20714;-68
2023/09/25 05:32:09;;;;;;;5.00;4.40;;;;;10.10;101744.00;;;;4917400;29;20311;-68
2023/09/25 05:34:56;;;;;;;6.70;4.70;;;;;10.10;101744.00;;;;4925848;29;20236;-69
2023/09/25 05:37:45;;;;;;;7.00;4.83;;;;;10.20;101753.00;;;;4917001;29;20715;-68
2023/09/25 05:40:31;;;;;;;10.97;4.73;;;;;10.20;101735.00;;;;4918436;29;20380;-70
2023/09/25 05:43:19;;;;;;;5.80;4.50;;;;;10.20;101742.00;;;;4917391;29;20228;-68
2023/09/25 05:46:05;;;;;;;7.97;4.73;;;;;10.20;101743.00;;;;4913664;29;20321;-69
2023/09/25 05:48:53;;;;;;;6.40;4.57;;;;;10.30;101741.00;;;;4915556;29;20229;-68
2023/09/25 05:51:45;;;;;;;7.33;4.70;;;;;10.30;101754.00;;;;4924653;29;20320;-69
2023/09/25 05:54:32;;;;;;;7.07;4.63;;;;;10.40;101762.00;;;;4909111;29;20240;-68
2023/09/25 05:57:19;;;;;;;7.37;5.10;;;;;10.50;101748.00;;;;4914838;29;20237;-69
2023/09/25 06:00:11;;;;;;;10.07;5.10;;;;;10.50;101751.00;;;;4922307;29;20289;-68
2023/09/25 06:02:58;;;;;;;7.10;4.77;;;;;10.50;101756.00;;;;4914538;29;20241;-69
2023/09/25 06:05:44;;;;;;;7.17;4.73;;;;;10.60;101754.00;;;;4912443;29;20229;-66
2023/09/25 06:08:33;;;;;;;8.67;5.20;;;;;10.60;101761.00;;;;4918820;29;20262;-67
2023/09/25 06:11:19;;;;;;;6.73;4.93;;;;;10.70;101754.00;;;;4916457;29;20233;-69
2023/09/25 06:14:06;;;;;;;7.63;4.87;;;;;10.70;101757.00;;;;4915572;29;20707;-68
2023/09/25 06:16:54;;;;;;;9.00;5.20;;;;;10.80;101757.00;;;;4924147;29;20243;-69
2023/09/25 06:19:41;;;;;;;7.73;4.70;;;;;10.80;101754.00;;;;4918489;28;20413;-70
2023/09/25 06:22:28;;;;;;;9.30;4.83;;;;;10.80;101755.00;;;;4923836;29;20390;-69
2023/09/25 06:25:17;;;;;;;5.97;4.80;;;;;10.90;101756.00;;;;4914776;29;20233;-67
2023/09/25 06:28:05;;;;;;;8.47;4.63;;;;;11.00;101754.00;;;;4921093;29;20237;-68
2023/09/25 06:30:51;;;;;;;7.23;4.93;;;;;11.10;101763.00;;;;4905670;29;20979;-68
2023/09/25 06:33:37;;;;;;;5.83;4.67;;;;;11.20;101762.00;;;;4918346;29;20497;-69
2023/09/25 06:36:24;;;;;;;7.23;5.30;;;;;11.20;101760.00;;;;4925790;28;21026;-69
2023/09/25 06:39:11;;;;;;;7.57;5.00;;;;;11.30;101765.00;;;;4918931;28;20241;-70
2023/09/25 06:41:59;;;;;;;8.33;5.47;;;;;11.40;101762.00;;;;4920767;29;20236;-68
2023/09/25 06:44:45;;;;;;;10.30;5.50;;;;;11.50;101771.00;;;;4922781;29;20237;-69
2023/09/25 06:47:33;;;;;;;7.80;5.27;;;;;11.60;101765.00;;;;4926344;28;20224;-70
2023/09/25 06:50:20;;;;;;;7.50;4.93;;;;;11.60;101771.00;;;;4925146;29;20244;-71
2023/09/25 06:53:06;;;;;;;9.43;5.13;;;;;11.70;101766.00;;;;4921186;29;20715;-69
2023/09/25 06:55:52;;;;;;;8.27;5.63;;;;;11.80;101758.00;;;;4921189;29;20393;-69
2023/09/25 06:58:40;;;;;;;7.57;5.40;;;;;11.90;101760.00;;;;4924374;29;20233;-70
2023/09/25 07:01:27;;;;;;;10.13;5.47;;;;;12.00;101756.00;;;;4925301;29;20233;-68
2023/09/25 07:04:13;;;;;;;11.27;6.33;;;;;12.10;101763.00;;;;4916409;29;21006;-69
2023/09/25 07:07:00;;;;;;;9.63;6.57;;;;;12.20;101768.00;;;;4916886;29;20293;-69
2023/09/25 07:09:50;;;;;;;9.80;6.30;;;;;12.30;101770.00;;;;4915740;29;20221;-70
2023/09/25 07:12:36;;;;;;;8.00;6.07;;;;;12.30;101761.00;;;;4911366;29;20297;-70
2023/09/25 07:15:24;;;;;;;8.30;6.53;;;;;12.40;101757.00;;;;4908968;29;20252;-69
2023/09/25 07:18:10;;;;;;;8.37;6.10;;;;;12.50;101759.00;;;;4918877;28;20244;-71
2023/09/25 07:20:57;;;;;;;10.17;6.43;;;;;12.60;101761.00;;;;4916351;29;20309;-68
2023/09/25 07:23:43;;;;;;;7.73;6.10;;;;;12.70;101755.00;;;;4922607;28;20602;-70
2023/09/25 07:26:30;;;;;;;11.73;6.90;;;;;12.80;101760.00;;;;4926775;29;20248;-69
2023/09/25 07:29:17;;;;;;;9.03;6.30;;;;;12.80;101754.00;;;;4919755;29;20304;-70
2023/09/25 07:32:25;;;;;;;12.67;8.57;;;;;12.90;101773.00;;;;4928691;29;20239;-70
2023/09/25 07:35:15;;;;;;;12.87;7.50;;;;;13.00;101761.00;;;;4919338;29;20712;-70
2023/09/25 07:38:01;;;;;;;10.23;7.47;;;;;13.10;101760.00;;;;4912207;29;20607;-70
2023/09/25 07:40:48;;;;;;;10.37;6.80;;;;;13.20;101770.00;;;;4913678;28;20751;-70
2023/09/25 07:43:48;;;;;;;10.87;6.37;;;;;13.30;101773.00;;;;4921774;29;20783;-70
2023/09/25 07:46:44;;;;;;;8.03;5.33;;;;;13.40;101775.00;;;;4923515;29;20240;-69
2023/09/25 07:49:38;;;;;;;10.37;5.90;;;;;13.60;101763.00;;;;4912441;29;20245;-69
2023/09/25 07:52:25;;;;;;;7.67;5.67;;;;;13.70;101767.00;;;;4917399;29;20244;-70
2023/09/25 07:55:12;;;;;;;7.33;5.07;;;;;13.80;101770.00;;;;4924703;29;20725;-70
2023/09/25 07:57:59;;;;;;;11.13;5.47;;;;;14.00;101766.00;;;;4922226;28;20615;-71
2023/09/25 08:00:47;;;;;;;9.77;5.17;;;;;14.10;101755.00;;;;4928900;28;20757;-71
2023/09/25 08:03:37;;;;;;;7.67;4.40;;;;;14.10;101763.00;;;;4928311;29;20605;-69
2023/09/25 08:06:27;;;;;;;6.97;3.70;;;;;14.20;101768.00;;;;4920407;29;20599;-71
2023/09/25 08:09:19;;;;;;;4.97;3.80;;;;;14.30;101773.00;;;;4925031;28;20238;-68
2023/09/25 08:12:06;;;;;;;6.27;3.70;;;;;14.40;101768.00;;;;4927560;29;20782;-69
2023/09/25 08:14:52;;;;;;;6.90;3.60;;;;;14.50;101769.00;;;;4925568;29;20236;-68
2023/09/25 08:17:42;;;;;;;5.27;3.70;;;;;14.70;101766.00;;;;4919759;29;20236;-68
2023/09/25 08:20:29;;;;;;;4.20;3.40;;;;;14.80;101765.00;;;;4925980;29;20237;-69
2023/09/25 08:23:17;;;;;;;4.20;2.90;;;;;14.90;101769.00;;;;4923516;29;20363;-71
2023/09/25 08:26:05;;;;;;;4.40;2.60;;;;;15.00;101770.00;;;;4919270;28;20251;-70
2023/09/25 08:28:52;;;;;;;3.57;2.70;;;;;15.20;101764.00;;;;4929076;28;20240;-68
2023/09/25 08:31:39;;;;;;;5.10;2.70;;;;;15.30;101751.00;;;;4926095;29;20286;-68
2023/09/25 08:34:25;;;;;;;4.97;2.93;;;;;15.40;101751.00;;;;4909615;29;20377;-70
2023/09/25 08:37:12;;;;;;;3.07;2.40;;;;;15.50;101763.00;;;;4913795;29;20235;-69
2023/09/25 08:40:00;;;;;;;4.40;2.50;;;;;15.70;101753.00;;;;4913971;28;20232;-71
2023/09/25 08:42:47;;;;;;;3.63;2.40;;;;;15.90;101756.00;;;;4925937;29;20234;-69
2023/09/25 08:45:38;;;;;;;3.87;2.23;;;;;16.10;101755.00;;;;4918659;29;20239;-70
2023/09/25 08:48:24;;;;;;;3.20;2.00;;;;;16.30;101752.00;;;;4925515;29;20278;-68
2023/09/25 08:51:11;;;;;;;4.83;1.93;;;;;16.50;101755.00;;;;4912508;29;20232;-69
2023/09/25 08:53:58;;;;;;;2.77;2.00;;;;;16.70;101748.00;;;;4924792;29;20228;-69
2023/09/25 08:56:47;;;;;;;3.30;2.10;;;;;16.80;101752.00;;;;4918344;29;20242;-69
2023/09/25 08:59:35;;;;;;;2.77;2.00;;;;;17.00;101750.00;;;;4911942;28;20340;-69
2023/09/25 09:02:22;;;;;;;3.07;2.10;;;;;17.10;101754.00;;;;4928640;28;20288;-70
2023/09/25 09:05:11;;;;;;;3.13;2.00;;;;;17.30;101746.00;;;;4916643;29;20240;-66
2023/09/25 09:07:59;;;;;;;4.37;2.00;;;;;17.30;101753.00;;;;4915639;29;20249;-70
2023/09/25 09:10:46;;;;;;;2.43;1.90;;;;;17.40;101745.00;;;;4925199;29;20632;-68
2023/09/25 09:13:42;;;;;;;1.93;1.73;;;;;17.50;101750.00;;;;4926961;29;20804;-69
2023/09/25 09:16:29;;;;;;;3.73;1.93;;;;;17.60;101750.00;;;;4925301;29;20308;-71
2023/09/25 09:19:16;;;;;;;3.80;1.80;;;;;17.60;101760.00;;;;4920465;29;20228;-70
2023/09/25 09:22:04;;;;;;;2.43;1.67;;;;;17.60;101761.00;;;;4928137;29;20277;-69
2023/09/25 09:24:52;;;;;;;3.77;1.67;;;;;17.80;101759.00;;;;4915544;29;20240;-69
2023/09/25 09:27:39;;;;;;;3.30;1.77;;;;;17.90;101769.00;;;;4923861;28;20916;-69
2023/09/25 09:30:28;;;;;;;4.07;1.77;;;;;18.00;101757.00;;;;4918172;28;20249;-71
2023/09/25 09:33:14;;;;;;;4.07;1.80;;;;;18.00;101751.00;;;;4924232;29;20367;-68
2023/09/25 09:36:00;;;;;;;2.37;1.70;;;;;18.10;101748.00;;;;4917460;29;20233;-69
2023/09/25 09:38:48;;;;;;;4.33;2.30;;;;;18.10;101751.00;;;;4915472;29;20236;-69
2023/09/25 09:41:36;;;;;;;2.33;2.10;;;;;18.20;101753.00;;;;4912294;29;20245;-69
2023/09/25 09:44:22;;;;;;;2.90;2.40;;;;;18.40;101746.00;;;;4913556;29;20874;-69
2023/09/25 09:47:11;;;;;;;2.17;1.53;;;;;18.60;101732.00;;;;4922239;29;20232;-68
2023/09/25 09:49:58;;;;;;;4.23;1.60;;;;;18.70;101746.00;;;;4922902;29;20634;-69
2023/09/25 09:52:45;;;;;;;4.43;1.80;;;;;18.80;101739.00;;;;4915690;29;20731;-70
2023/09/25 09:55:32;;;;;;;4.07;2.00;;;;;18.90;101733.00;;;;4922064;29;20265;-71
2023/09/25 09:58:19;;;;;;;3.73;1.70;;;;;19.00;101735.00;;;;4916288;29;20779;-72
2023/09/25 10:01:07;;;;;;;2.50;1.87;;;;;19.10;101728.00;;;;4913736;29;20237;-69
2023/09/25 10:03:56;;;;;;;2.23;1.60;;;;;19.30;101727.00;;;;4924183;29;20746;-71
2023/09/25 10:06:49;;;;;;;3.27;1.77;;;;;19.50;101732.00;;;;4922046;29;20400;-70
2023/09/25 10:09:36;;;;;;;1.70;1.40;;;;;19.60;101735.00;;;;4920069;28;20306;-72
2023/09/25 10:12:37;;;;;;;2.13;1.60;;;;;19.70;101722.00;;;;4917511;29;20249;-69
2023/09/25 10:15:26;;;;;;;2.13;1.47;;;;;19.80;101714.00;;;;4924872;29;20285;-72
2023/09/25 10:18:13;;;;;;;2.17;1.70;;;;;20.10;101724.00;;;;4920511;29;20234;-69
2023/09/25 10:21:08;;;;;;;2.17;1.67;;;;;20.40;101712.00;;;;4923175;28;20308;-72
2023/09/25 10:23:57;;;;;;;2.90;1.50;;;;;20.50;101711.00;;;;4916756;29;20365;-71
2023/09/25 10:26:43;;;;;;;3.43;1.70;;;;;20.60;101701.00;;;;4916412;29;20239;-71
2023/09/25 10:29:32;;;;;;;2.90;1.63;;;;;20.80;101699.00;;;;4921666;29;20234;-69
2023/09/25 10:32:30;;;;;;;3.57;1.63;;;;;20.70;101711.00;;;;4917193;29;20932;-70
2023/09/25 10:35:38;;;;;;;3.57;2.80;;;;;20.60;101697.00;;;;4920811;29;20319;-73
2023/09/25 10:38:28;;;;;;;3.07;2.20;;;;;20.50;101693.00;;;;4915459;29;20246;-69
2023/09/25 10:41:18;;;;;;;3.27;1.80;;;;;20.50;101700.00;;;;4913788;28;20340;-69
2023/09/25 10:44:05;;;;;;;2.60;1.53;;;;;20.50;101697.00;;;;4913348;29;20244;-69
2023/09/25 10:46:51;;;;;;;1.93;1.40;;;;;20.60;101702.00;;;;4919220;29;20251;-69
2023/09/25 10:49:39;;;;;;;4.17;1.40;;;;;20.80;101695.00;;;;4918086;29;20741;-69
2023/09/25 10:52:26;;;;;;;2.27;1.70;;;;;21.00;101703.00;;;;4919763;28;20239;-74
2023/09/25 10:55:15;;;;;;;4.43;1.50;;;;;21.10;101704.00;;;;4927968;29;20346;-70
2023/09/25 10:58:01;;;;;;;2.83;1.50;;;;;21.20;101699.00;;;;4926434;28;20252;-70
2023/09/25 11:00:50;;;;;;;3.53;1.67;;;;;21.00;101698.00;;;;4922524;29;20251;-72
2023/09/25 11:03:37;;;;;;;3.03;1.47;;;;;21.00;101705.00;;;;4922798;28;20229;-70
2023/09/25 11:06:23;;;;;;;2.37;1.50;;;;;21.10;101714.00;;;;4916521;29;20236;-72
2023/09/25 11:09:15;;;;;;;2.00;1.60;;;;;21.10;101696.00;;;;4925607;29;20246;-74
2023/09/25 11:12:03;;;;;;;2.07;1.50;;;;;21.30;101694.00;;;;4928198;29;20363;-72
2023/09/25 11:14:49;;;;;;;1.40;1.30;;;;;21.40;101703.00;;;;4928033;29;20285;-70
2023/09/25 11:17:36;;;;;;;1.53;1.43;;;;;21.50;101705.00;;;;4921587;29;20262;-73
2023/09/25 11:20:29;;;;;;;2.47;1.70;;;;;21.60;101700.00;;;;4919801;29;20233;-73
2023/09/25 11:23:17;;;;;;;2.43;1.50;;;;;21.70;101708.00;;;;4923596;29;20231;-69
2023/09/25 11:26:07;;;;;;;1.87;1.30;;;;;21.80;101702.00;;;;4921924;29;20240;-69
2023/09/25 11:28:56;;;;;;;2.73;1.53;;;;;21.90;101708.00;;;;4928205;29;20735;-71
2023/09/25 11:31:42;;;;;;;1.40;1.30;;;;;22.10;101704.00;;;;4920290;29;20240;-71
2023/09/25 11:34:47;;;;;;;1.60;1.50;;;;;22.20;101711.00;;;;4920029;29;20248;-71
2023/09/25 11:37:35;;;;;;;3.73;1.83;;;;;22.20;101710.00;;;;4927793;29;20312;-69
2023/09/25 11:40:21;;;;;;;2.90;1.70;;;;;22.30;101707.00;;;;4921649;28;20927;-71
2023/09/25 11:43:07;;;;;;;2.93;1.53;;;;;22.40;101707.00;;;;4925700;29;20312;-71
2023/09/25 11:45:56;;;;;;;2.20;1.43;;;;;22.60;101708.00;;;;4922211;29;20228;-71
2023/09/25 11:48:42;;;;;;;1.60;1.30;;;;;22.60;101709.00;;;;4922800;29;20229;-72
2023/09/25 11:51:28;;;;;;;2.73;1.40;;;;;22.60;101705.00;;;;4922639;29;20891;-68
2023/09/25 11:54:15;;;;;;;2.33;1.30;;;;;22.50;101707.00;;;;4916456;29;20237;-71
2023/09/25 11:57:01;;;;;;;2.43;1.43;;;;;22.50;101707.00;;;;4913574;29;20246;-69
2023/09/25 11:59:48;;;;;;;2.50;1.57;;;;;22.70;101715.00;;;;4917014;29;20429;-71
2023/09/25 12:02:36;;;;;;;2.23;1.77;;;;;22.80;101718.00;;;;4913596;29;20722;-71
2023/09/25 12:05:24;;;;;;;4.97;1.50;;;;;23.00;101721.00;;;;4918225;28;20229;-71
2023/09/25 12:08:12;;;;;;;3.17;1.30;;;;;23.00;101715.00;;;;4920968;28;21061;-69
2023/09/25 12:10:58;;;;;;;2.60;1.40;;;;;23.00;101716.00;;;;4922544;29;20232;-71
2023/09/25 12:13:45;;;;;;;2.10;1.60;;;;;23.10;101711.00;;;;4928421;29;20363;-69
2023/09/25 12:16:33;;;;;;;2.30;1.40;;;;;23.10;101712.00;;;;4928296;29;20300;-70
2023/09/25 12:19:20;;;;;;;1.80;1.20;;;;;23.10;101707.00;;;;4922893;28;20305;-69
2023/09/25 12:22:07;;;;;;;2.17;1.30;;;;;23.20;101710.00;;;;4917410;29;20652;-68
2023/09/25 12:24:53;;;;;;;2.40;1.50;;;;;23.30;101707.00;;;;4925896;29;20776;-67
2023/09/25 12:27:41;;;;;;;1.87;1.50;;;;;23.50;101714.00;;;;4923809;29;20233;-71
2023/09/25 12:30:28;;;;;;;1.57;1.40;;;;;23.50;101708.00;;;;4920897;29;20306;-69
2023/09/25 12:33:18;;;;;;;3.57;1.50;;;;;23.50;101708.00;;;;4917267;29;20245;-72
2023/09/25 12:36:06;;;;;;;3.20;1.43;;;;;23.40;101712.00;;;;4923633;29;20293;-71
2023/09/25 12:38:52;;;;;;;2.77;1.50;;;;;23.40;101711.00;;;;4917694;29;20616;-68
2023/09/25 12:41:41;;;;;;;2.20;1.50;;;;;23.50;101716.00;;;;4916548;29;20229;-73
2023/09/25 12:44:27;;;;;;;2.87;1.50;;;;;23.30;101725.00;;;;4907345;28;20607;-70
2023/09/25 12:47:14;;;;;;;2.63;1.53;;;;;23.40;101730.00;;;;4918679;29;20346;-73
2023/09/25 12:50:00;;;;;;;2.47;1.70;;;;;23.50;101727.00;;;;4922901;29;20346;-69
2023/09/25 12:52:48;;;;;;;3.00;1.40;;;;;23.40;101727.00;;;;4921352;29;20798;-70
2023/09/25 12:55:34;;;;;;;2.27;1.50;;;;;23.60;101723.00;;;;4920394;29;20232;-70
2023/09/25 12:58:22;;;;;;;1.50;1.23;;;;;23.80;101736.00;;;;4917586;29;20369;-71
2023/09/25 13:01:08;;;;;;;1.80;1.47;;;;;24.00;101727.00;;;;4920810;29;20222;-70
2023/09/25 13:03:55;;;;;;;1.60;1.37;;;;;24.10;101725.00;;;;4927463;29;20668;-70
2023/09/25 13:06:41;;;;;;;1.60;1.37;;;;;24.10;101718.00;;;;4921755;29;20225;-70
2023/09/25 13:09:29;;;;;;;2.70;1.40;;;;;23.80;101732.00;;;;4920751;28;20592;-69
2023/09/25 13:12:15;;;;;;;3.07;1.40;;;;;23.80;101728.00;;;;4922960;29;20241;-71
2023/09/25 13:15:03;;;;;;;3.17;1.53;;;;;23.90;101729.00;;;;4926248;29;20747;-69
2023/09/25 13:17:52;;;;;;;1.90;1.50;;;;;23.60;101730.00;;;;4918442;29;20232;-69
2023/09/25 13:20:38;;;;;;;2.37;1.60;;;;;23.60;101735.00;;;;4921562;29;20228;-69
2023/09/25 13:23:25;;;;;;;2.50;1.40;;;;;23.70;101744.00;;;;4921404;28;20914;-69
2023/09/25 13:26:13;;;;;;;1.87;1.50;;;;;23.80;101738.00;;;;4924357;29;20233;-71
2023/09/25 13:28:59;;;;;;;2.23;1.40;;;;;23.90;101738.00;;;;4927628;29;20247;-66
2023/09/25 13:31:45;;;;;;;2.43;1.60;;;;;23.80;101734.00;;;;4924467;29;20289;-68
2023/09/25 13:34:31;;;;;;;2.55;1.50;;;;;24.10;101731.00;;;;4924765;29;20313;-72
2023/09/25 13:37:18;;;;;;;3.37;1.40;;;;;24.30;101737.00;;;;4923271;29;20240;-74
2023/09/25 13:40:06;;;;;;;1.97;1.50;;;;;24.20;101737.00;;;;4925797;28;20245;-67
2023/09/25 13:42:55;;;;;;;2.80;1.40;;;;;24.10;101740.00;;;;4926569;29;20252;-71
2023/09/25 13:45:41;;;;;;;3.03;2.10;;;;;24.10;101751.00;;;;4911356;29;20720;-70
2023/09/25 13:48:28;;;;;;;1.43;1.30;;;;;24.00;101749.00;;;;4925139;29;20313;-71